Formiga, Brazil
Current Conditions -  °F | °C
As of 5:00 PM on Friday 21 Nov 2014 (Local Time) from SBPR Reporting Station
Few Clouds Few Clouds  
Wind Chill: 90°   Ceiling: Unl
Heat Index: 90°   Visibility: 6mi
Dew Point: 57°   Wind: 6mph
Humidity: 33%   Direction: 70°ENE
Pressure: 30"   Gusts: NA
Location:  20.46°S, 45.43°W
Report Text: SBPR 211900Z 07005KT 9999 FEW030 32/14 Q1016
Loading
Personal Weather Stations






























Interactive Weather Map New forecast layout! Learn more

10-Day Weather Forecast

Advertisements
Track Severe Weather on mobile